Airfield :
LOGIN :

Register | Disclaimer

   EN    FR    IT 

 










Legend :    VFR   Marginal VFR   IFR   Intensive IFR   Very Intensive IFR
Visi :
Ceiling :
>= 8 km
>= 3000ft
5 to 8 km
1000 to 3000 ft
1500m to 5 km
500 to 1000 ft
800 to 1500m
200 to 500 ft
< 800m
< 200 ft
Symbols :   Thunderstorms  Fog  Heavy snow  Heavy precipitations  Wind > 20 kt
SIGMETs :     Misc.  Thunderstorms  Icing  Turbulence  Mountain Waves  Volcanic Ashes







- Airport Elevation : 464 ft
- IATA code : EVX
- Download approach charts


LFOE - Evreux

CURRENT METAR :
  • 262130Z AUTO 26006KT 9999 SCT021 OVC050 15/12 Q1015 TEMPO 2000 DZRA OVC005

EXPIRED METARs :
  • 262100Z AUTO 27008KT 9999 OVC021 15/12 Q1015 BECMG SCT008 BKN012
  • 262030Z AUTO 25010KT 9999 OVC019 15/12 Q1015 BECMG SCT008 BKN012
  • 262000Z AUTO 25010KT 9999 BKN021 BKN028 OVC033 15/12 Q1015 BECMG SCT008 BKN012
  • 261930Z AUTO 26008KT 9999 BKN031 OVC041 16/12 Q1015 BECMG SCT008 BKN012
  • 261900Z AUTO 24007KT 210V270 9999 OVC034 16/12 Q1015 BECMG SCT008 BKN012

TAF TAF LFOE
Valid from the 26 at 21:00 until the 27 at 21:00 UTC


262000Z 2621/2721 27006KT 9999 SCT020 BKN030
BECMG 2621/2623 SCT008 BKN012
TEMPO 2623/2704 2000 DZRA OVC005
BECMG 2704/2706 SCT010
No reported NOTAMs for that airfield.



MET'MAP, your aeronautical weather chart ! - Copyright ORBIFLY December 2007 - Disclaimer

ORBIFLY MET'MAP TEAM :

Programming & Development : Alexandra Zaïnal
Concept & Development : Baudouin d'Aumeries
Co-Development & Prog : Marc-Olivier Méhu
Technical & hardware support : Manuel Goepfert

Contact : metmap@orbifly.com




SOURCES & CREDITS :

   NOAA